PWSweather.com
Personal Weather Stations
Station Observations
KILMORRI1
Goose Lake, Morris, IL 60450

Goose LakeMorris, IL 60450

Lat: 41.34, Lon: -88.3

Elevation: 523

Station Type:

www.gooselakeweather.com

High Low Average
Temperature 36.9°F2.7°C 16.2°F-8.8°C 27.9°F-2.3°C
Dew Point 35.1°F1.7°C 11.6°F-11.3°C 24.6°F-4.1°C
Winds 11.5 mph 18.5 kmh Calm Calm 5.0 mph WSW8.0 kmh WSW
Wind Gusts 17.3 mph27.8 kmh -- 8.0 mph12.9 kmh
Humidity 94% 80% 87%
Pressure 29.91 in1012.9 mb 29.64 in1003.7 mb -
Precipitation 0.27 in6.9 mm - -
Hour Temp Dew Point Humidity Winds Wind Gusts Pressure Precip Precip Rate Daily Precip Total
12:00 AM 35.4°F1.9°C 33.3°F0.7°C 92% 3.5 mph S5.6 kmh S 4.6 mph7.4 kmh 29.86 in1011.2 mb - 0.00 in0.0 mm 0.00 in0.0 mm
12:10 AM 35.4°F1.9°C 33.3°F0.7°C 92% 4.6 mph SSE7.4 kmh SSE 8.1 mph13.0 kmh 29.86 in1011.2 mb - 0.00 in0.0 mm 0.00 in0.0 mm
12:20 AM 35.4°F1.9°C 33.3°F0.7°C 92% 4.6 mph S7.4 kmh S 9.2 mph14.8 kmh 29.86 in1011.2 mb - 0.00 in0.0 mm 0.00 in0.0 mm
12:30 AM 35.5°F1.9°C 33.4°F0.8°C 92% 3.5 mph S5.6 kmh S 4.6 mph7.4 kmh 29.86 in1011.2 mb - 0.01 in0.3 mm 0.01 in0.3 mm
12:40 AM 35.6°F2.0°C 33.5°F0.8°C 92% 2.3 mph SSE3.7 kmh SSE 4.6 mph7.4 kmh 29.85 in1010.8 mb - 0.00 in0.0 mm 0.01 in0.3 mm
12:50 AM 35.7°F2.1°C 33.9°F1.1°C 93% 3.5 mph S5.6 kmh S 8.1 mph13.0 kmh 29.84 in1010.5 mb - 0.01 in0.3 mm 0.02 in0.5 mm
01:00 AM 35.8°F2.1°C 34.0°F1.1°C 93% 3.5 mph S5.6 kmh S 4.6 mph7.4 kmh 29.84 in1010.5 mb - 0.00 in0.0 mm 0.02 in0.5 mm
01:10 AM 35.9°F2.2°C 34.1°F1.2°C 93% 2.3 mph SSE3.7 kmh SSE 3.5 mph5.6 kmh 29.83 in1010.2 mb - 0.00 in0.0 mm 0.02 in0.5 mm
01:20 AM 35.9°F2.2°C 34.1°F1.2°C 93% 2.3 mph SSE3.7 kmh SSE 4.6 mph7.4 kmh 29.82 in1009.8 mb - 0.01 in0.3 mm 0.03 in0.8 mm
01:30 AM 35.9°F2.2°C 34.1°F1.2°C 93% 3.5 mph S5.6 kmh S 5.8 mph9.3 kmh 29.82 in1009.8 mb - 0.00 in0.0 mm 0.03 in0.8 mm
01:40 AM 36.0°F2.2°C 34.2°F1.2°C 93% 2.3 mph SSE3.7 kmh SSE 5.8 mph9.3 kmh 29.82 in1009.8 mb - 0.02 in0.5 mm 0.05 in1.3 mm
01:50 AM 36.1°F2.3°C 34.3°F1.3°C 93% 2.3 mph S3.7 kmh S 3.5 mph5.6 kmh 29.82 in1009.8 mb - 0.01 in0.3 mm 0.06 in1.5 mm
02:00 AM 36.1°F2.3°C 34.3°F1.3°C 93% 2.3 mph SSE3.7 kmh SSE 8.1 mph13.0 kmh 29.81 in1009.5 mb - 0.01 in0.3 mm 0.07 in1.8 mm
02:10 AM 36.2°F2.3°C 34.4°F1.3°C 93% 4.6 mph SSE7.4 kmh SSE 6.9 mph11.1 kmh 29.80 in1009.1 mb - 0.00 in0.0 mm 0.07 in1.8 mm
02:20 AM 36.1°F2.3°C 34.3°F1.3°C 93% 2.3 mph SSE3.7 kmh SSE 3.5 mph5.6 kmh 29.78 in1008.5 mb - 0.00 in0.0 mm 0.07 in1.8 mm
02:30 AM 36.4°F2.4°C 34.5°F1.4°C 93% 1.2 mph SE1.9 kmh SE 3.5 mph5.6 kmh 29.78 in1008.5 mb - 0.00 in0.0 mm 0.07 in1.8 mm
02:40 AM 36.4°F2.4°C 34.6°F1.4°C 93% 3.5 mph SE5.6 kmh SE 3.5 mph5.6 kmh 29.77 in1008.1 mb - 0.00 in0.0 mm 0.07 in1.8 mm
02:50 AM 36.4°F2.4°C 34.6°F1.4°C 93% 2.3 mph SE3.7 kmh SE 3.5 mph5.6 kmh 29.76 in1007.8 mb - 0.00 in0.0 mm 0.07 in1.8 mm
03:00 AM 36.5°F2.5°C 34.7°F1.5°C 93% 3.5 mph SSE5.6 kmh SSE 5.8 mph9.3 kmh 29.77 in1008.1 mb - 0.01 in0.3 mm 0.08 in2.0 mm
03:10 AM 36.5°F2.5°C 34.6°F1.4°C 93% 3.5 mph SE5.6 kmh SE 6.9 mph11.1 kmh 29.76 in1007.8 mb - 0.00 in0.0 mm 0.08 in2.0 mm
03:20 AM 36.4°F2.4°C 34.6°F1.4°C 93% 2.3 mph S3.7 kmh S 3.5 mph5.6 kmh 29.75 in1007.5 mb - 0.00 in0.0 mm 0.08 in2.0 mm
03:30 AM 36.4°F2.4°C 34.6°F1.4°C 93% 1.2 mph SE1.9 kmh SE 3.5 mph5.6 kmh 29.75 in1007.5 mb - 0.00 in0.0 mm 0.08 in2.0 mm
03:40 AM 36.6°F2.6°C 34.8°F1.6°C 93% 1.2 mph S1.9 kmh S 3.5 mph5.6 kmh 29.75 in1007.5 mb - 0.00 in0.0 mm 0.08 in2.0 mm
03:50 AM 36.9°F2.7°C 35.1°F1.7°C 93% 2.3 mph S3.7 kmh S 3.5 mph5.6 kmh 29.75 in1007.5 mb - 0.02 in0.5 mm 0.10 in2.5 mm
04:00 AM 36.9°F2.7°C 35.1°F1.7°C 93% 3.5 mph S5.6 kmh S 4.6 mph7.4 kmh 29.75 in1007.5 mb - 0.00 in0.0 mm 0.10 in2.5 mm
04:10 AM 36.9°F2.7°C 35.0°F1.7°C 93% 3.5 mph S5.6 kmh S 2.3 mph3.7 kmh 29.74 in1007.1 mb - 0.02 in0.5 mm 0.12 in3.0 mm
04:20 AM 36.6°F2.6°C 34.8°F1.6°C 93% 1.2 mph S1.9 kmh S 2.3 mph3.7 kmh 29.73 in1006.8 mb - 0.00 in0.0 mm 0.12 in3.0 mm
04:30 AM 36.4°F2.4°C 34.6°F1.4°C 93% 1.2 mph S1.9 kmh S 2.3 mph3.7 kmh 29.73 in1006.8 mb - 0.02 in0.5 mm 0.14 in3.6 mm
04:40 AM 36.2°F2.3°C 34.4°F1.3°C 93% Calm Calm 1.2 mph1.9 kmh 29.73 in1006.8 mb - 0.01 in0.3 mm 0.15 in3.8 mm
04:50 AM 36.4°F2.4°C 34.6°F1.4°C 93% Calm Calm 1.2 mph1.9 kmh 29.72 in1006.4 mb - 0.01 in0.3 mm 0.16 in4.1 mm
05:00 AM 35.7°F2.1°C 33.9°F1.1°C 93% Calm Calm 1.2 mph1.9 kmh 29.71 in1006.1 mb - 0.02 in0.5 mm 0.18 in4.6 mm
05:10 AM 35.3°F1.8°C 33.5°F0.8°C 93% 2.3 mph E3.7 kmh E 4.6 mph7.4 kmh 29.68 in1005.1 mb - 0.01 in0.3 mm 0.19 in4.8 mm
05:20 AM 34.8°F1.6°C 33.0°F0.6°C 93% Calm Calm 2.3 mph3.7 kmh 29.67 in1004.7 mb - 0.01 in0.3 mm 0.20 in5.1 mm
05:30 AM 35.7°F2.1°C 33.8°F1.0°C 93% 2.3 mph ESE3.7 kmh ESE 3.5 mph5.6 kmh 29.66 in1004.4 mb - 0.01 in0.3 mm 0.20 in5.1 mm
05:40 AM 35.2°F1.8°C 33.4°F0.8°C 93% 2.3 mph E3.7 kmh E 2.3 mph3.7 kmh 29.66 in1004.4 mb - 0.01 in0.3 mm 0.21 in5.3 mm
05:50 AM 35.5°F1.9°C 33.6°F0.9°C 93% Calm Calm 1.2 mph1.9 kmh 29.66 in1004.4 mb - 0.00 in0.0 mm 0.21 in5.3 mm
06:00 AM 35.3°F1.8°C 33.5°F0.8°C 93% Calm Calm -- 29.65 in1004.1 mb - 0.00 in0.0 mm 0.21 in5.3 mm
06:10 AM 34.9°F1.6°C 33.1°F0.6°C 93% 1.2 mph E1.9 kmh E 1.2 mph1.9 kmh 29.66 in1004.4 mb - 0.00 in0.0 mm 0.21 in5.3 mm
06:20 AM 35.2°F1.8°C 33.4°F0.8°C 93% 2.3 mph WNW3.7 kmh WNW 3.5 mph5.6 kmh 29.68 in1005.1 mb - 0.00 in0.0 mm 0.21 in5.3 mm
06:30 AM 35.6°F2.0°C 33.8°F1.0°C 93% 1.2 mph NW1.9 kmh NW 2.3 mph3.7 kmh 29.65 in1004.1 mb - 0.00 in0.0 mm 0.21 in5.3 mm
06:40 AM 35.3°F1.8°C 33.5°F0.8°C 93% 3.5 mph WNW5.6 kmh WNW 3.5 mph5.6 kmh 29.65 in1004.1 mb - 0.01 in0.3 mm 0.22 in5.6 mm
06:50 AM 35.5°F1.9°C 33.7°F0.9°C 93% 2.3 mph WNW3.7 kmh WNW 3.5 mph5.6 kmh 29.67 in1004.7 mb - 0.00 in0.0 mm 0.22 in5.6 mm
07:00 AM 35.6°F2.0°C 34.1°F1.2°C 94% 3.5 mph W5.6 kmh W 4.6 mph7.4 kmh 29.66 in1004.4 mb - 0.01 in0.3 mm 0.23 in5.8 mm
07:10 AM 35.2°F1.8°C 33.4°F0.8°C 93% 1.2 mph WNW1.9 kmh WNW 3.5 mph5.6 kmh 29.66 in1004.4 mb - 0.01 in0.3 mm 0.24 in6.1 mm
07:20 AM 34.9°F1.6°C 33.1°F0.6°C 93% 1.2 mph NW1.9 kmh NW 1.2 mph1.9 kmh 29.65 in1004.1 mb - 0.00 in0.0 mm 0.24 in6.1 mm
07:30 AM 34.6°F1.4°C 32.8°F0.4°C 93% 1.2 mph NW1.9 kmh NW 2.3 mph3.7 kmh 29.66 in1004.4 mb - 0.00 in0.0 mm 0.24 in6.1 mm
07:40 AM 34.5°F1.4°C 32.7°F0.4°C 93% Calm Calm -- 29.66 in1004.4 mb - 0.01 in0.3 mm 0.25 in6.4 mm
07:50 AM 34.2°F1.2°C 32.4°F0.2°C 93% Calm Calm -- 29.65 in1004.1 mb - 0.00 in0.0 mm 0.25 in6.4 mm
08:00 AM 34.4°F1.3°C 32.9°F0.5°C 94% Calm Calm -- 29.64 in1003.7 mb - 0.00 in0.0 mm 0.25 in6.4 mm
08:10 AM 34.1°F1.2°C 32.3°F0.2°C 93% 1.2 mph NW1.9 kmh NW 2.3 mph3.7 kmh 29.65 in1004.1 mb - 0.01 in0.3 mm 0.26 in6.6 mm
08:20 AM 34.3°F1.3°C 32.5°F0.3°C 93% 1.2 mph WNW1.9 kmh WNW 3.5 mph5.6 kmh 29.65 in1004.1 mb - 0.00 in0.0 mm 0.26 in6.6 mm
08:30 AM 34.3°F1.3°C 32.5°F0.3°C 93% 2.3 mph WNW3.7 kmh WNW 3.5 mph5.6 kmh 29.65 in1004.1 mb - 0.00 in0.0 mm 0.26 in6.6 mm
08:40 AM 34.3°F1.3°C 32.5°F0.3°C 93% 3.5 mph NW5.6 kmh NW 5.8 mph9.3 kmh 29.64 in1003.7 mb - 0.00 in0.0 mm 0.26 in6.6 mm
08:50 AM 33.9°F1.1°C 32.4°F0.2°C 94% 3.5 mph NW5.6 kmh NW 4.6 mph7.4 kmh 29.65 in1004.1 mb - 0.00 in0.0 mm 0.26 in6.6 mm
09:00 AM 33.5°F0.8°C 31.6°F-0.2°C 93% 6.9 mph NW11.1 kmh NW 11.5 mph18.5 kmh 29.66 in1004.4 mb - 0.00 in0.0 mm 0.26 in6.6 mm
09:10 AM 32.8°F0.4°C 31.0°F-0.6°C 93% 4.6 mph NW7.4 kmh NW 5.8 mph9.3 kmh 29.67 in1004.7 mb - 0.01 in0.3 mm 0.27 in6.9 mm
09:20 AM 32.2°F0.1°C 30.4°F-0.9°C 93% 4.6 mph NW7.4 kmh NW 4.6 mph7.4 kmh 29.68 in1005.1 mb - 0.00 in0.0 mm 0.27 in6.9 mm
09:30 AM 31.9°F-0.1°C 30.1°F-1.1°C 93% 6.9 mph WNW11.1 kmh WNW 9.2 mph14.8 kmh 29.68 in1005.1 mb - 0.00 in0.0 mm 0.27 in6.9 mm
09:40 AM 30.9°F-0.6°C 29.1°F-1.6°C 93% 6.9 mph NW11.1 kmh NW 11.5 mph18.5 kmh 29.68 in1005.1 mb - 0.00 in0.0 mm 0.27 in6.9 mm
09:50 AM 29.3°F-1.5°C 27.6°F-2.4°C 93% 5.8 mph W9.3 kmh W 10.4 mph16.7 kmh 29.70 in1005.8 mb - 0.00 in0.0 mm 0.27 in6.9 mm
10:00 AM 28.8°F-1.8°C 27.0°F-2.8°C 93% 6.9 mph WNW11.1 kmh WNW 11.5 mph18.5 kmh 29.70 in1005.8 mb - 0.00 in0.0 mm 0.27 in6.9 mm
10:10 AM 27.8°F-2.3°C 26.0°F-3.3°C 93% 9.2 mph WNW14.8 kmh WNW 11.5 mph18.5 kmh 29.70 in1005.8 mb - 0.00 in0.0 mm 0.27 in6.9 mm
10:20 AM 27.4°F-2.6°C 25.6°F-3.6°C 93% 6.9 mph NW11.1 kmh NW 10.4 mph16.7 kmh 29.70 in1005.8 mb - 0.00 in0.0 mm 0.27 in6.9 mm
10:30 AM 27.3°F-2.6°C 25.3°F-3.7°C 92% 6.9 mph WNW11.1 kmh WNW 11.5 mph18.5 kmh 29.71 in1006.1 mb - 0.00 in0.0 mm 0.27 in6.9 mm
10:40 AM 26.9°F-2.8°C 24.9°F-3.9°C 92% 6.9 mph W11.1 kmh W 11.5 mph18.5 kmh 29.72 in1006.4 mb - 0.00 in0.0 mm 0.27 in6.9 mm
10:50 AM 26.8°F-2.9°C 24.5°F-4.2°C 91% 8.1 mph NW13.0 kmh NW 9.2 mph14.8 kmh 29.73 in1006.8 mb - 0.00 in0.0 mm 0.27 in6.9 mm
11:00 AM 26.4°F-3.1°C 24.1°F-4.4°C 91% 9.2 mph WNW14.8 kmh WNW 11.5 mph18.5 kmh 29.73 in1006.8 mb - 0.00 in0.0 mm 0.27 in6.9 mm
11:10 AM 25.8°F-3.4°C 23.2°F-4.9°C 90% 9.2 mph WNW14.8 kmh WNW 15.0 mph24.1 kmh 29.74 in1007.1 mb - 0.00 in0.0 mm 0.27 in6.9 mm
11:20 AM 25.6°F-3.6°C 22.8°F-5.1°C 89% 10.4 mph WNW16.7 kmh WNW 15.0 mph24.1 kmh 29.74 in1007.1 mb - 0.00 in0.0 mm 0.27 in6.9 mm
11:30 AM 25.7°F-3.5°C 22.6°F-5.2°C 88% 9.2 mph W14.8 kmh W 11.5 mph18.5 kmh 29.75 in1007.5 mb - 0.00 in0.0 mm 0.27 in6.9 mm
11:40 AM 25.5°F-3.6°C 22.5°F-5.3°C 88% 6.9 mph WNW11.1 kmh WNW 11.5 mph18.5 kmh 29.76 in1007.8 mb - 0.00 in0.0 mm 0.27 in6.9 mm
11:50 AM 25.6°F-3.6°C 22.3°F-5.4°C 87% 8.1 mph WNW13.0 kmh WNW 11.5 mph18.5 kmh 29.76 in1007.8 mb - 0.00 in0.0 mm 0.27 in6.9 mm
12:00 PM 25.5°F-3.6°C 22.2°F-5.4°C 87% 9.2 mph W14.8 kmh W 12.7 mph20.4 kmh 29.75 in1007.5 mb - 0.00 in0.0 mm 0.27 in6.9 mm
12:10 PM 25.3°F-3.7°C 21.7°F-5.7°C 86% 5.8 mph W9.3 kmh W 11.5 mph18.5 kmh 29.77 in1008.1 mb - 0.00 in0.0 mm 0.27 in6.9 mm
12:20 PM 25.1°F-3.8°C 21.2°F-6.0°C 85% 10.4 mph W16.7 kmh W 15.0 mph24.1 kmh 29.77 in1008.1 mb - 0.00 in0.0 mm 0.27 in6.9 mm
12:30 PM 24.9°F-3.9°C 21.0°F-6.1°C 85% 10.4 mph WNW16.7 kmh WNW 12.7 mph20.4 kmh 29.77 in1008.1 mb - 0.00 in0.0 mm 0.27 in6.9 mm
12:40 PM 25.0°F-3.9°C 20.9°F-6.2°C 84% 9.2 mph W14.8 kmh W 12.7 mph20.4 kmh 29.77 in1008.1 mb - 0.00 in0.0 mm 0.27 in6.9 mm
12:50 PM 24.9°F-3.9°C 20.7°F-6.3°C 84% 11.5 mph W18.5 kmh W 15.0 mph24.1 kmh 29.77 in1008.1 mb - 0.00 in0.0 mm 0.27 in6.9 mm
01:00 PM 24.8°F-4.0°C 20.7°F-6.3°C 84% 9.2 mph NW14.8 kmh NW 16.1 mph25.9 kmh 29.76 in1007.8 mb - 0.00 in0.0 mm 0.27 in6.9 mm
01:10 PM 24.8°F-4.0°C 20.7°F-6.3°C 84% 11.5 mph WNW18.5 kmh WNW 15.0 mph24.1 kmh 29.77 in1008.1 mb - 0.00 in0.0 mm 0.27 in6.9 mm
01:20 PM 24.5°F-4.2°C 20.4°F-6.4°C 84% 9.2 mph WNW14.8 kmh WNW 13.8 mph22.2 kmh 29.77 in1008.1 mb - 0.00 in0.0 mm 0.27 in6.9 mm
01:30 PM 24.2°F-4.3°C 20.1°F-6.6°C 84% 10.4 mph WNW16.7 kmh WNW 17.3 mph27.8 kmh 29.77 in1008.1 mb - 0.00 in0.0 mm 0.27 in6.9 mm
01:40 PM 24.1°F-4.4°C 20.0°F-6.7°C 84% 8.1 mph WNW13.0 kmh WNW 13.8 mph22.2 kmh 29.77 in1008.1 mb - 0.00 in0.0 mm 0.27 in6.9 mm
01:50 PM 23.9°F-4.5°C 19.5°F-6.9°C 83% 9.2 mph W14.8 kmh W 11.5 mph18.5 kmh 29.77 in1008.1 mb - 0.00 in0.0 mm 0.27 in6.9 mm
02:00 PM 23.7°F-4.6°C 19.3°F-7.1°C 83% 9.2 mph WNW14.8 kmh WNW 16.1 mph25.9 kmh 29.77 in1008.1 mb - 0.00 in0.0 mm 0.27 in6.9 mm
02:10 PM 23.5°F-4.7°C 19.1°F-7.2°C 83% 8.1 mph NW13.0 kmh NW 15.0 mph24.1 kmh 29.78 in1008.5 mb - 0.00 in0.0 mm 0.27 in6.9 mm
02:20 PM 23.6°F-4.7°C 19.2°F-7.1°C 83% 5.8 mph WNW9.3 kmh WNW 5.8 mph9.3 kmh 29.78 in1008.5 mb - 0.00 in0.0 mm 0.27 in6.9 mm
02:30 PM 23.5°F-4.7°C 19.1°F-7.2°C 83% 8.1 mph WNW13.0 kmh WNW 11.5 mph18.5 kmh 29.78 in1008.5 mb - 0.00 in0.0 mm 0.27 in6.9 mm
02:40 PM 23.6°F-4.7°C 18.9°F-7.3°C 82% 5.8 mph WNW9.3 kmh WNW 11.5 mph18.5 kmh 29.79 in1008.8 mb - 0.00 in0.0 mm 0.27 in6.9 mm
02:50 PM 23.7°F-4.6°C 19.3°F-7.1°C 83% 6.9 mph NW11.1 kmh NW 11.5 mph18.5 kmh 29.79 in1008.8 mb - 0.00 in0.0 mm 0.27 in6.9 mm
03:00 PM 23.6°F-4.7°C 18.9°F-7.3°C 82% 8.1 mph WNW13.0 kmh WNW 13.8 mph22.2 kmh 29.79 in1008.8 mb - 0.00 in0.0 mm 0.27 in6.9 mm
03:10 PM 23.7°F-4.6°C 19.0°F-7.2°C 82% 8.1 mph WNW13.0 kmh WNW 10.4 mph16.7 kmh 29.80 in1009.1 mb - 0.00 in0.0 mm 0.27 in6.9 mm
03:20 PM 23.6°F-4.7°C 18.6°F-7.4°C 81% 6.9 mph NW11.1 kmh NW 10.4 mph16.7 kmh 29.80 in1009.1 mb - 0.00 in0.0 mm 0.27 in6.9 mm
03:30 PM 23.6°F-4.7°C 18.7°F-7.4°C 81% 5.8 mph WNW9.3 kmh WNW 10.4 mph16.7 kmh 29.80 in1009.1 mb - 0.00 in0.0 mm 0.27 in6.9 mm
03:40 PM 23.3°F-4.8°C 18.6°F-7.4°C 82% 10.4 mph W16.7 kmh W 12.7 mph20.4 kmh 29.81 in1009.5 mb - 0.00 in0.0 mm 0.27 in6.9 mm
03:50 PM 23.2°F-4.9°C 18.5°F-7.5°C 82% 8.1 mph WNW13.0 kmh WNW 10.4 mph16.7 kmh 29.82 in1009.8 mb - 0.00 in0.0 mm 0.27 in6.9 mm
04:00 PM 23.0°F-5.0°C 18.3°F-7.6°C 82% 6.9 mph W11.1 kmh W 10.4 mph16.7 kmh 29.81 in1009.5 mb - 0.00 in0.0 mm 0.27 in6.9 mm
04:10 PM 22.9°F-5.1°C 18.0°F-7.8°C 81% 9.2 mph WNW14.8 kmh WNW 12.7 mph20.4 kmh 29.81 in1009.5 mb - 0.00 in0.0 mm 0.27 in6.9 mm
04:20 PM 22.9°F-5.1°C 17.9°F-7.8°C 81% 9.2 mph WNW14.8 kmh WNW 13.8 mph22.2 kmh 29.81 in1009.5 mb - 0.00 in0.0 mm 0.27 in6.9 mm
04:30 PM 22.7°F-5.2°C 17.8°F-7.9°C 81% 10.4 mph WNW16.7 kmh WNW 12.7 mph20.4 kmh 29.82 in1009.8 mb - 0.00 in0.0 mm 0.27 in6.9 mm
04:40 PM 22.5°F-5.3°C 17.5°F-8.1°C 81% 8.1 mph W13.0 kmh W 12.7 mph20.4 kmh 29.82 in1009.8 mb - 0.00 in0.0 mm 0.27 in6.9 mm
04:50 PM 22.3°F-5.4°C 17.4°F-8.1°C 81% 6.9 mph NW11.1 kmh NW 8.1 mph13.0 kmh 29.83 in1010.2 mb - 0.00 in0.0 mm 0.27 in6.9 mm
05:00 PM 22.2°F-5.4°C 17.3°F-8.2°C 81% 10.4 mph W16.7 kmh W 16.1 mph25.9 kmh 29.82 in1009.8 mb - 0.00 in0.0 mm 0.27 in6.9 mm
05:10 PM 21.9°F-5.6°C 16.7°F-8.5°C 80% 5.8 mph WNW9.3 kmh WNW 11.5 mph18.5 kmh 29.83 in1010.2 mb - 0.00 in0.0 mm 0.27 in6.9 mm
05:20 PM 21.8°F-5.7°C 16.6°F-8.6°C 80% 10.4 mph W16.7 kmh W 13.8 mph22.2 kmh 29.86 in1011.2 mb - 0.00 in0.0 mm 0.27 in6.9 mm
05:30 PM 21.6°F-5.8°C 16.4°F-8.7°C 80% 6.9 mph NW11.1 kmh NW 11.5 mph18.5 kmh 29.84 in1010.5 mb - 0.00 in0.0 mm 0.27 in6.9 mm
05:40 PM 21.5°F-5.8°C 16.6°F-8.6°C 81% 3.5 mph NW5.6 kmh NW 4.6 mph7.4 kmh 29.85 in1010.8 mb - 0.00 in0.0 mm 0.27 in6.9 mm
05:50 PM 21.4°F-5.9°C 16.5°F-8.6°C 81% 5.8 mph NW9.3 kmh NW 5.8 mph9.3 kmh 29.86 in1011.2 mb - 0.00 in0.0 mm 0.27 in6.9 mm
06:00 PM 21.4°F-5.9°C 16.5°F-8.6°C 81% 4.6 mph WNW7.4 kmh WNW 11.5 mph18.5 kmh 29.86 in1011.2 mb - 0.00 in0.0 mm 0.27 in6.9 mm
06:10 PM 21.4°F-5.9°C 16.5°F-8.6°C 81% 4.6 mph WNW7.4 kmh WNW 9.2 mph14.8 kmh 29.87 in1011.5 mb - 0.00 in0.0 mm 0.27 in6.9 mm
06:20 PM 21.4°F-5.9°C 16.5°F-8.6°C 81% 4.6 mph W7.4 kmh W 6.9 mph11.1 kmh 29.86 in1011.2 mb - 0.00 in0.0 mm 0.27 in6.9 mm
06:30 PM 21.4°F-5.9°C 16.5°F-8.6°C 81% 6.9 mph WNW11.1 kmh WNW 12.7 mph20.4 kmh 29.87 in1011.5 mb - 0.00 in0.0 mm 0.27 in6.9 mm
06:40 PM 21.4°F-5.9°C 16.2°F-8.8°C 80% 5.8 mph NW9.3 kmh NW 6.9 mph11.1 kmh 29.88 in1011.9 mb - 0.00 in0.0 mm 0.27 in6.9 mm
06:50 PM 21.5°F-5.8°C 16.3°F-8.7°C 80% 5.8 mph WNW9.3 kmh WNW 9.2 mph14.8 kmh 29.87 in1011.5 mb - 0.00 in0.0 mm 0.27 in6.9 mm
07:00 PM 21.4°F-5.9°C 16.5°F-8.6°C 81% 5.8 mph W9.3 kmh W 6.9 mph11.1 kmh 29.89 in1012.2 mb - 0.00 in0.0 mm 0.27 in6.9 mm
07:10 PM 21.5°F-5.8°C 16.5°F-8.6°C 81% 8.1 mph W13.0 kmh W 11.5 mph18.5 kmh 29.88 in1011.9 mb - 0.00 in0.0 mm 0.27 in6.9 mm
07:20 PM 21.4°F-5.9°C 16.2°F-8.8°C 80% 5.8 mph WNW9.3 kmh WNW 10.4 mph16.7 kmh 29.87 in1011.5 mb - 0.00 in0.0 mm 0.27 in6.9 mm
07:30 PM 21.4°F-5.9°C 16.2°F-8.8°C 80% 5.8 mph WNW9.3 kmh WNW 9.2 mph14.8 kmh 29.88 in1011.9 mb - 0.00 in0.0 mm 0.27 in6.9 mm
07:40 PM 21.4°F-5.9°C 16.2°F-8.8°C 80% 6.9 mph W11.1 kmh W 9.2 mph14.8 kmh 29.88 in1011.9 mb - 0.00 in0.0 mm 0.27 in6.9 mm
07:50 PM 21.5°F-5.8°C 16.3°F-8.7°C 80% 6.9 mph W11.1 kmh W 8.1 mph13.0 kmh 29.89 in1012.2 mb - 0.00 in0.0 mm 0.27 in6.9 mm
08:00 PM 21.6°F-5.8°C 16.3°F-8.7°C 80% 6.9 mph WNW11.1 kmh WNW 11.5 mph18.5 kmh 29.90 in1012.5 mb - 0.00 in0.0 mm 0.27 in6.9 mm
08:10 PM 21.6°F-5.8°C 16.3°F-8.7°C 80% 5.8 mph W9.3 kmh W 9.2 mph14.8 kmh 29.90 in1012.5 mb - 0.00 in0.0 mm 0.27 in6.9 mm
08:20 PM 21.4°F-5.9°C 16.2°F-8.8°C 80% 6.9 mph WSW11.1 kmh WSW 10.4 mph16.7 kmh 29.90 in1012.5 mb - 0.00 in0.0 mm 0.27 in6.9 mm
08:30 PM 21.3°F-5.9°C 16.4°F-8.7°C 81% 5.8 mph WNW9.3 kmh WNW 11.5 mph18.5 kmh 29.89 in1012.2 mb - 0.00 in0.0 mm 0.27 in6.9 mm
08:40 PM 21.3°F-5.9°C 16.4°F-8.7°C 81% 4.6 mph W7.4 kmh W 11.5 mph18.5 kmh 29.89 in1012.2 mb - 0.00 in0.0 mm 0.27 in6.9 mm
08:50 PM 21.2°F-6.0°C 16.3°F-8.7°C 81% 4.6 mph W7.4 kmh W 8.1 mph13.0 kmh 29.89 in1012.2 mb - 0.00 in0.0 mm 0.27 in6.9 mm
09:00 PM 21.1°F-6.1°C 16.2°F-8.8°C 81% 4.6 mph WNW7.4 kmh WNW 8.1 mph13.0 kmh 29.89 in1012.2 mb - 0.00 in0.0 mm 0.27 in6.9 mm
09:10 PM 20.9°F-6.2°C 16.0°F-8.9°C 81% 6.9 mph W11.1 kmh W 8.1 mph13.0 kmh 29.89 in1012.2 mb - 0.00 in0.0 mm 0.27 in6.9 mm
09:20 PM 20.9°F-6.2°C 16.0°F-8.9°C 81% 5.8 mph WNW9.3 kmh WNW 10.4 mph16.7 kmh 29.89 in1012.2 mb - 0.00 in0.0 mm 0.27 in6.9 mm
09:30 PM 20.8°F-6.2°C 15.9°F-8.9°C 81% 4.6 mph WNW7.4 kmh WNW 6.9 mph11.1 kmh 29.89 in1012.2 mb - 0.00 in0.0 mm 0.27 in6.9 mm
09:40 PM 20.6°F-6.3°C 15.9°F-8.9°C 82% 8.1 mph WNW13.0 kmh WNW 11.5 mph18.5 kmh 29.88 in1011.9 mb - 0.00 in0.0 mm 0.27 in6.9 mm
09:50 PM 20.3°F-6.5°C 15.7°F-9.1°C 82% 5.8 mph WNW9.3 kmh WNW 8.1 mph13.0 kmh 29.88 in1011.9 mb - 0.00 in0.0 mm 0.27 in6.9 mm
10:00 PM 20.3°F-6.5°C 15.4°F-9.2°C 81% 5.8 mph WNW9.3 kmh WNW 9.2 mph14.8 kmh 29.88 in1011.9 mb - 0.00 in0.0 mm 0.27 in6.9 mm
10:10 PM 20.3°F-6.5°C 15.4°F-9.2°C 81% 4.6 mph W7.4 kmh W 6.9 mph11.1 kmh 29.89 in1012.2 mb - 0.00 in0.0 mm 0.27 in6.9 mm
10:20 PM 20.2°F-6.6°C 15.3°F-9.3°C 81% 3.5 mph WNW5.6 kmh WNW 5.8 mph9.3 kmh 29.89 in1012.2 mb - 0.00 in0.0 mm 0.27 in6.9 mm
10:30 PM 20.1°F-6.6°C 15.2°F-9.3°C 81% 4.6 mph WSW7.4 kmh WSW 6.9 mph11.1 kmh 29.89 in1012.2 mb - 0.00 in0.0 mm 0.27 in6.9 mm
10:40 PM 19.9°F-6.7°C 15.0°F-9.4°C 81% 4.6 mph W7.4 kmh W 6.9 mph11.1 kmh 29.89 in1012.2 mb - 0.00 in0.0 mm 0.27 in6.9 mm
10:50 PM 19.7°F-6.8°C 15.1°F-9.4°C 82% 4.6 mph W7.4 kmh W 5.8 mph9.3 kmh 29.89 in1012.2 mb - 0.00 in0.0 mm 0.27 in6.9 mm
11:00 PM 19.2°F-7.1°C 14.7°F-9.6°C 82% 3.5 mph WSW5.6 kmh WSW 4.6 mph7.4 kmh 29.89 in1012.2 mb - 0.00 in0.0 mm 0.27 in6.9 mm
11:10 PM 18.9°F-7.3°C 14.3°F-9.8°C 82% 2.3 mph W3.7 kmh W 3.5 mph5.6 kmh 29.90 in1012.5 mb - 0.00 in0.0 mm 0.27 in6.9 mm
11:20 PM 18.6°F-7.4°C 14.0°F-10.0°C 82% 3.5 mph W5.6 kmh W 3.5 mph5.6 kmh 29.90 in1012.5 mb - 0.00 in0.0 mm 0.27 in6.9 mm
11:30 PM 17.9°F-7.8°C 13.3°F-10.4°C 82% 4.6 mph W7.4 kmh W 6.9 mph11.1 kmh 29.90 in1012.5 mb - 0.00 in0.0 mm 0.27 in6.9 mm
11:40 PM 16.8°F-8.4°C 12.3°F-10.9°C 82% 5.8 mph W9.3 kmh W 5.8 mph9.3 kmh 29.90 in1012.5 mb - 0.00 in0.0 mm 0.27 in6.9 mm
11:50 PM 16.2°F-8.8°C 11.6°F-11.3°C 82% 4.6 mph WSW7.4 kmh WSW 5.8 mph9.3 kmh 29.91 in1012.9 mb - 0.00 in0.0 mm 0.27 in6.9 mm